Time;durP1;ratioP1;P1;durP2;ratioP2;P2;SDS_P1;SDS_P2;PMS_P1;PMS_P2;Temp;Humidity;BMP_temperature;BMP_pressure;BME280_temperature;BME280_humidity;BME280_pressure;Samples;Min_cycle;Max_cycle;Signal;HPM_P1;HPM_P2
2021/11/30 00:01:47;;;;;;;40.95;22.67;;;2.40;99.90;;;;;;5106486;28;20027;-45
2021/11/30 00:04:14;;;;;;;41.58;22.02;;;2.40;99.90;;;;;;5101329;28;20028;-45
2021/11/30 00:06:41;;;;;;;39.67;22.25;;;2.40;99.90;;;;;;5109640;28;20148;-45
2021/11/30 00:12:03;;;;;;;42.03;22.65;;;2.50;99.90;;;;;;5108750;28;20085;-45
2021/11/30 00:14:29;;;;;;;40.17;22.17;;;2.50;99.90;;;;;;5108206;28;20019;-45
2021/11/30 00:16:57;;;;;;;40.08;23.58;;;2.50;99.90;;;;;;5109554;28;20361;-45
2021/11/30 00:19:23;;;;;;;37.50;21.17;;;2.50;99.90;;;;;;5109567;28;20023;-44
2021/11/30 00:21:49;;;;;;;38.85;21.92;;;2.50;99.90;;;;;;5108638;28;20016;-44
2021/11/30 00:24:14;;;;;;;41.63;21.90;;;2.50;99.90;;;;;;5109158;28;20023;-44
2021/11/30 00:26:40;;;;;;;37.47;21.02;;;2.50;99.90;;;;;;5109113;28;20026;-46
2021/11/30 00:29:06;;;;;;;40.78;21.42;;;2.60;99.90;;;;;;5109079;28;20016;-45
2021/11/30 00:31:31;;;;;;;42.80;21.77;;;2.60;99.90;;;;;;5105591;28;20099;-43
2021/11/30 00:33:57;;;;;;;38.10;20.80;;;2.60;99.90;;;;;;5100525;28;20381;-45
2021/11/30 00:36:23;;;;;;;36.63;21.02;;;2.60;99.90;;;;;;5109260;28;20092;-46
2021/11/30 00:38:48;;;;;;;37.30;19.85;;;2.60;99.90;;;;;;5109059;28;20174;-44
2021/11/30 00:41:14;;;;;;;35.40;18.23;;;2.70;99.90;;;;;;5108373;28;20409;-44
2021/11/30 00:43:40;;;;;;;39.17;18.85;;;2.70;99.90;;;;;;5109038;28;20067;-44
2021/11/30 00:46:18;;;;;;;38.05;18.52;;;2.80;99.90;;;;;;5109439;28;20028;-44
2021/11/30 00:48:44;;;;;;;35.65;19.23;;;2.80;99.90;;;;;;5109209;28;20030;-44
2021/11/30 00:51:19;;;;;;;37.00;20.23;;;2.80;99.90;;;;;;5108485;28;20378;-47
2021/11/30 00:53:47;;;;;;;35.35;19.33;;;2.80;99.90;;;;;;5109200;28;20052;-45
2021/11/30 00:56:14;;;;;;;36.85;19.45;;;2.70;99.90;;;;;;5109066;28;20423;-44
2021/11/30 00:58:40;;;;;;;32.17;18.60;;;2.70;99.90;;;;;;5109077;28;20028;-46
2021/11/30 01:01:07;;;;;;;40.40;20.23;;;2.70;99.90;;;;;;5106470;28;20102;-44
2021/11/30 01:03:33;;;;;;;32.05;18.67;;;2.70;99.90;;;;;;5100257;28;20039;-44
2021/11/30 01:05:59;;;;;;;37.25;19.50;;;2.70;99.90;;;;;;5109037;28;20027;-44
2021/11/30 01:08:25;;;;;;;35.22;19.70;;;2.70;99.90;;;;;;5107904;28;20053;-44
2021/11/30 01:10:51;;;;;;;34.42;18.33;;;2.60;99.90;;;;;;5108206;28;20023;-47
2021/11/30 01:13:18;;;;;;;31.45;18.67;;;2.60;99.90;;;;;;5108809;28;20193;-45
2021/11/30 01:15:45;;;;;;;33.28;20.00;;;2.60;99.90;;;;;;5108775;28;20027;-46
2021/11/30 01:18:11;;;;;;;33.75;18.60;;;2.70;99.90;;;;;;5108751;28;20027;-46
2021/11/30 01:20:37;;;;;;;34.88;19.42;;;2.70;99.90;;;;;;5109809;28;20024;-46
2021/11/30 01:23:04;;;;;;;33.65;19.02;;;2.70;99.90;;;;;;5112504;28;20027;-44
2021/11/30 01:25:31;;;;;;;37.05;19.73;;;2.70;99.90;;;;;;5112520;28;20554;-45
2021/11/30 01:27:57;;;;;;;32.22;19.00;;;2.70;99.90;;;;;;5112790;28;20393;-45
2021/11/30 01:30:23;;;;;;;32.35;18.08;;;2.80;99.90;;;;;;5111892;28;20031;-45
2021/11/30 01:32:49;;;;;;;38.75;18.65;;;2.80;99.90;;;;;;5101423;28;20039;-45
2021/11/30 01:35:16;;;;;;;40.20;18.85;;;2.90;99.90;;;;;;5112125;28;20023;-44
2021/11/30 01:37:43;;;;;;;36.63;20.02;;;2.90;99.90;;;;;;5112210;28;20020;-44
2021/11/30 01:40:11;;;;;;;37.28;20.17;;;2.90;99.90;;;;;;5111887;27;20015;-43
2021/11/30 01:42:42;;;;;;;42.15;21.02;;;3.00;99.90;;;;;;5112067;28;20027;-45
2021/11/30 01:45:10;;;;;;;37.95;20.48;;;2.90;99.90;;;;;;5112246;28;20155;-46
2021/11/30 01:47:52;;;;;;;34.75;19.48;;;2.90;99.90;;;;;;5111836;28;20031;-44
2021/11/30 01:50:18;;;;;;;39.20;20.58;;;2.90;99.90;;;;;;5111406;28;20528;-46
2021/11/30 01:52:48;;;;;;;39.75;21.35;;;3.00;99.90;;;;;;5110802;28;20047;-43
2021/11/30 01:55:14;;;;;;;37.00;20.23;;;3.00;99.90;;;;;;5111994;28;20047;-44
2021/11/30 01:57:39;;;;;;;37.72;20.35;;;3.00;99.90;;;;;;5111987;28;20512;-45
2021/11/30 02:00:08;;;;;;;35.95;20.02;;;3.10;99.90;;;;;;5111602;28;20090;-46
2021/11/30 02:02:34;;;;;;;40.47;22.38;;;3.10;99.90;;;;;;5103458;28;20119;-45
2021/11/30 02:04:59;;;;;;;42.97;21.05;;;3.00;99.90;;;;;;5109833;28;20115;-45
2021/11/30 02:07:25;;;;;;;36.00;19.88;;;3.10;99.90;;;;;;5111760;28;20081;-44
2021/11/30 02:09:51;;;;;;;38.85;20.95;;;3.10;99.90;;;;;;5111933;28;20307;-44
2021/11/30 02:12:16;;;;;;;38.78;21.00;;;3.10;99.90;;;;;;5111333;28;20028;-44
2021/11/30 02:14:45;;;;;;;40.17;20.90;;;3.10;99.90;;;;;;5111633;28;20080;-44
2021/11/30 02:17:13;;;;;;;36.60;20.40;;;3.10;99.90;;;;;;5111154;28;20536;-43
2021/11/30 02:19:52;;;;;;;37.35;19.95;;;3.10;99.90;;;;;;5111497;28;20019;-43
2021/11/30 02:22:18;;;;;;;35.03;19.55;;;3.10;99.90;;;;;;5110832;28;20020;-43
2021/11/30 02:24:43;;;;;;;38.95;20.48;;;3.20;99.90;;;;;;5111474;28;20358;-43
2021/11/30 02:27:10;;;;;;;38.20;20.63;;;3.30;99.90;;;;;;5111535;28;20250;-43
2021/11/30 02:29:36;;;;;;;40.80;20.30;;;3.20;99.90;;;;;;5111492;28;20106;-43
2021/11/30 02:32:01;;;;;;;40.88;20.40;;;3.30;99.90;;;;;;5106866;28;20451;-44
2021/11/30 02:34:27;;;;;;;38.80;18.60;;;3.30;99.90;;;;;;5104731;28;20106;-44
2021/11/30 02:36:54;;;;;;;37.13;20.63;;;3.30;99.90;;;;;;5109784;28;20031;-45
2021/11/30 02:39:23;;;;;;;35.67;19.42;;;3.30;99.90;;;;;;5111180;28;20028;-45
2021/11/30 02:41:51;;;;;;;38.15;18.98;;;3.40;99.90;;;;;;5110507;28;20047;-45
2021/11/30 02:44:20;;;;;;;36.47;20.30;;;3.40;99.90;;;;;;5110931;28;20023;-44
2021/11/30 02:46:53;;;;;;;36.15;19.80;;;3.50;99.90;;;;;;5111048;28;20057;-45
2021/11/30 02:49:22;;;;;;;39.65;20.77;;;3.40;99.90;;;;;;5111148;28;20016;-45
2021/11/30 02:51:52;;;;;;;39.70;19.67;;;3.40;99.90;;;;;;5110414;28;20077;-45
2021/11/30 02:54:20;;;;;;;38.55;19.48;;;3.50;99.90;;;;;;5110703;28;20497;-44
2021/11/30 02:56:57;;;;;;;37.90;20.40;;;3.50;99.90;;;;;;5110622;28;20027;-45
2021/11/30 02:59:25;;;;;;;37.70;18.67;;;3.40;99.90;;;;;;5110735;28;20064;-45
2021/11/30 03:01:56;;;;;;;35.38;18.40;;;3.40;99.90;;;;;;5107472;28;20078;-45
2021/11/30 03:04:21;;;;;;;32.38;17.50;;;3.40;99.90;;;;;;5102023;28;20023;-45
2021/11/30 03:06:47;;;;;;;35.55;18.85;;;3.40;99.90;;;;;;5110903;28;20384;-44
2021/11/30 03:09:13;;;;;;;34.00;18.08;;;3.40;99.90;;;;;;5110534;28;20054;-44
2021/11/30 03:11:39;;;;;;;34.67;18.92;;;3.40;99.90;;;;;;5108545;28;20034;-44
2021/11/30 03:14:05;;;;;;;40.67;20.30;;;3.40;99.90;;;;;;5110527;28;20030;-45
2021/11/30 03:16:32;;;;;;;32.17;17.75;;;3.40;99.90;;;;;;5110176;28;20117;-44
2021/11/30 03:18:58;;;;;;;36.15;18.92;;;3.40;99.90;;;;;;5110483;28;20051;-45
2021/11/30 03:21:24;;;;;;;32.92;18.20;;;3.40;99.90;;;;;;5109726;28;20186;-47
2021/11/30 03:23:50;;;;;;;35.33;18.88;;;3.50;99.90;;;;;;5108998;28;20481;-45
2021/11/30 03:26:16;;;;;;;40.85;20.02;;;3.50;99.90;;;;;;5110297;28;20038;-45
2021/11/30 03:28:43;;;;;;;30.90;16.02;;;3.40;99.90;;;;;;5110531;28;20023;-46
2021/11/30 03:31:31;;;;;;;32.45;16.35;;;3.50;99.90;;;;;;5104112;28;20100;-45
2021/11/30 03:34:00;;;;;;;28.83;16.15;;;3.50;99.90;;;;;;5097821;28;20028;-48
2021/11/30 03:36:30;;;;;;;32.30;16.55;;;3.40;99.90;;;;;;5108452;28;20028;-45
2021/11/30 03:38:57;;;;;;;31.93;15.73;;;3.40;99.90;;;;;;5110040;28;20434;-46
2021/11/30 03:41:23;;;;;;;35.05;18.02;;;3.30;99.90;;;;;;5109119;28;20026;-45
2021/11/30 03:43:49;;;;;;;34.28;17.13;;;3.30;99.90;;;;;;5102520;28;20032;-45
2021/11/30 03:46:15;;;;;;;30.83;15.50;;;3.40;99.90;;;;;;5088818;28;20027;-46
2021/11/30 03:48:41;;;;;;;37.35;16.33;;;3.30;99.90;;;;;;5093259;28;20406;-46
2021/11/30 03:51:06;;;;;;;30.52;16.67;;;3.30;99.90;;;;;;5099070;28;20235;-45
2021/11/30 03:53:32;;;;;;;31.88;16.15;;;3.20;99.90;;;;;;5102676;28;20031;-45
2021/11/30 03:55:58;;;;;;;31.58;15.48;;;3.20;99.90;;;;;;5097132;28;20030;-44
2021/11/30 03:58:23;;;;;;;31.02;16.05;;;3.30;99.90;;;;;;5088796;28;20100;-45
2021/11/30 04:00:49;;;;;;;33.13;17.00;;;3.30;99.90;;;;;;5088074;28;20024;-46
2021/11/30 04:03:15;;;;;;;34.72;15.68;;;3.30;99.90;;;;;;5097131;28;20448;-45
2021/11/30 04:05:41;;;;;;;31.88;16.60;;;3.30;99.90;;;;;;5104929;28;20253;-45
2021/11/30 04:08:07;;;;;;;28.30;15.02;;;3.30;99.90;;;;;;5109456;28;20023;-45
2021/11/30 04:10:33;;;;;;;34.88;15.50;;;3.30;99.90;;;;;;5108980;28;20023;-45
2021/11/30 04:12:59;;;;;;;24.75;14.45;;;3.30;99.90;;;;;;5109584;28;20020;-45
2021/11/30 04:15:25;;;;;;;24.02;14.75;;;3.30;99.90;;;;;;5100253;28;20945;-47
2021/11/30 04:17:50;;;;;;;28.38;15.02;;;3.30;99.90;;;;;;5086701;28;20088;-45
2021/11/30 04:20:17;;;;;;;29.25;16.27;;;3.30;99.90;;;;;;5087556;28;20039;-46
2021/11/30 04:22:42;;;;;;;28.08;15.25;;;3.30;99.90;;;;;;5089021;28;20012;-46
2021/11/30 04:25:11;;;;;;;30.85;16.70;;;3.30;99.90;;;;;;5089197;28;20190;-45
2021/11/30 04:27:37;;;;;;;28.52;16.27;;;3.30;99.90;;;;;;5059963;28;20109;-45
2021/11/30 04:30:05;;;;;;;32.15;17.50;;;3.20;99.90;;;;;;5089428;28;20028;-44
2021/11/30 04:32:31;;;;;;;30.52;17.67;;;3.20;99.90;;;;;;5087277;28;20024;-44
2021/11/30 04:34:57;;;;;;;29.67;16.95;;;3.30;99.90;;;;;;5090542;28;20034;-45
2021/11/30 04:37:22;;;;;;;26.20;15.43;;;3.20;99.90;;;;;;5087596;28;20044;-44
2021/11/30 04:39:48;;;;;;;24.50;13.02;;;3.20;99.90;;;;;;5088900;28;20497;-45
2021/11/30 04:42:14;;;;;;;17.38;12.20;;;3.20;99.90;;;;;;5086239;28;20037;-46
2021/11/30 04:44:49;;;;;;;17.98;13.57;;;3.20;99.90;;;;;;5088705;28;20103;-44
2021/11/30 04:47:14;;;;;;;19.45;12.30;;;3.20;99.90;;;;;;5088461;28;20059;-44
2021/11/30 04:49:54;;;;;;;18.25;11.75;;;3.20;99.90;;;;;;5087425;28;20075;-44
2021/11/30 04:52:20;;;;;;;21.05;12.70;;;3.20;99.90;;;;;;5088280;28;20107;-45
2021/11/30 04:54:45;;;;;;;19.95;12.13;;;3.20;99.90;;;;;;5092021;28;20111;-44
2021/11/30 04:57:11;;;;;;;17.30;12.18;;;3.20;99.90;;;;;;5093149;28;20370;-45
2021/11/30 04:59:37;;;;;;;25.23;12.27;;;3.10;99.90;;;;;;5092676;28;20024;-44
2021/11/30 05:02:03;;;;;;;18.90;11.55;;;3.10;99.90;;;;;;5093612;28;20469;-45
2021/11/30 05:04:30;;;;;;;19.05;11.80;;;3.10;99.90;;;;;;5104634;28;20031;-44
2021/11/30 05:06:57;;;;;;;17.48;12.48;;;3.10;99.90;;;;;;5111854;28;20514;-47
2021/11/30 05:09:23;;;;;;;16.02;10.30;;;3.00;99.90;;;;;;5112960;28;20089;-45
2021/11/30 05:11:49;;;;;;;15.00;9.00;;;3.00;99.90;;;;;;5110882;28;20484;-47
2021/11/30 05:14:14;;;;;;;13.48;8.15;;;3.00;99.90;;;;;;5111485;28;20036;-45
2021/11/30 05:16:40;;;;;;;14.65;9.32;;;3.10;99.90;;;;;;5111515;28;20055;-44
2021/11/30 05:19:06;;;;;;;11.90;9.20;;;3.00;99.90;;;;;;5113059;28;20055;-45
2021/11/30 05:21:32;;;;;;;13.48;9.10;;;2.90;99.90;;;;;;5112114;28;20020;-47
2021/11/30 05:24:04;;;;;;;11.93;9.38;;;2.90;99.90;;;;;;5106411;28;20015;-45
2021/11/30 05:26:30;;;;;;;11.70;8.88;;;2.90;99.90;;;;;;5101021;28;20051;-45
2021/11/30 05:28:56;;;;;;;13.18;8.27;;;2.90;99.90;;;;;;5110083;28;20043;-46
2021/11/30 05:31:22;;;;;;;11.45;7.63;;;2.90;99.90;;;;;;5108139;28;20525;-45
2021/11/30 05:33:48;;;;;;;11.70;7.63;;;2.90;99.90;;;;;;5100303;28;20334;-45
2021/11/30 05:36:17;;;;;;;11.27;6.80;;;2.90;99.90;;;;;;5071537;28;20462;-47
2021/11/30 05:38:43;;;;;;;10.02;6.65;;;2.90;99.90;;;;;;5071989;28;20390;-44
2021/11/30 05:41:09;;;;;;;10.93;6.93;;;2.90;99.90;;;;;;5069698;28;20077;-45
2021/11/30 05:43:34;;;;;;;8.77;5.53;;;2.80;99.90;;;;;;5071407;28;20040;-45
2021/11/30 05:46:00;;;;;;;11.50;6.40;;;2.80;99.90;;;;;;5071804;28;20024;-44
2021/11/30 05:48:26;;;;;;;7.75;6.25;;;2.70;99.90;;;;;;5069920;28;20040;-44
2021/11/30 05:50:53;;;;;;;7.63;5.32;;;2.70;99.90;;;;;;5070823;28;20047;-44
2021/11/30 05:53:18;;;;;;;5.03;4.15;;;2.70;99.90;;;;;;5071142;28;20163;-44
2021/11/30 05:55:48;;;;;;;8.82;4.80;;;2.80;99.90;;;;;;5070047;28;20111;-45
2021/11/30 05:58:15;;;;;;;7.07;4.60;;;2.70;99.90;;;;;;5081055;28;20028;-45
2021/11/30 06:00:41;;;;;;;6.05;4.47;;;2.60;99.90;;;;;;5090921;28;20016;-45
2021/11/30 06:03:20;;;;;;;6.10;4.60;;;2.60;99.90;;;;;;5099559;28;20027;-44
2021/11/30 06:05:46;;;;;;;6.45;4.50;;;2.60;99.90;;;;;;5107475;28;20350;-45
2021/11/30 06:08:12;;;;;;;5.03;3.92;;;2.60;99.90;;;;;;5111601;28;20430;-45
2021/11/30 06:10:38;;;;;;;6.65;3.88;;;2.60;99.90;;;;;;5110958;28;20107;-45
2021/11/30 06:13:03;;;;;;;5.05;4.22;;;2.60;99.90;;;;;;5111656;28;20027;-47
2021/11/30 06:15:29;;;;;;;8.15;4.00;;;2.60;99.90;;;;;;5109988;28;20059;-45
2021/11/30 06:17:55;;;;;;;6.35;3.80;;;2.60;99.90;;;;;;5111163;28;20039;-44
2021/11/30 06:20:21;;;;;;;10.55;4.80;;;2.60;99.90;;;;;;5109274;28;20031;-45
2021/11/30 06:22:47;;;;;;;6.55;4.45;;;2.70;99.90;;;;;;5111701;28;20024;-47
2021/11/30 06:25:13;;;;;;;7.75;4.07;;;2.70;99.90;;;;;;5109847;28;20374;-44
2021/11/30 06:27:40;;;;;;;6.88;3.85;;;2.70;99.90;;;;;;5111287;28;20393;-45
2021/11/30 06:30:07;;;;;;;4.65;3.53;;;2.80;99.90;;;;;;5110922;28;20024;-43
2021/11/30 06:32:32;;;;;;;5.63;3.75;;;2.80;99.90;;;;;;5098156;28;20023;-44
2021/11/30 06:34:58;;;;;;;6.50;4.30;;;2.80;99.90;;;;;;5102553;28;20038;-44
2021/11/30 06:37:24;;;;;;;5.72;4.25;;;2.80;99.90;;;;;;5109648;28;20564;-44
2021/11/30 06:39:52;;;;;;;5.20;4.28;;;2.90;99.90;;;;;;5109892;28;20028;-48
2021/11/30 06:42:18;;;;;;;8.65;4.68;;;2.90;99.90;;;;;;5074403;28;20028;-45
2021/11/30 06:44:45;;;;;;;5.93;4.55;;;2.90;99.90;;;;;;5101447;28;20027;-44
2021/11/30 06:47:11;;;;;;;7.05;4.57;;;2.80;99.90;;;;;;5098870;28;20061;-45
2021/11/30 06:49:36;;;;;;;5.53;4.72;;;2.90;99.90;;;;;;5081219;28;20032;-45
2021/11/30 06:52:02;;;;;;;7.47;4.72;;;2.90;99.90;;;;;;5078803;28;20466;-46
2021/11/30 06:54:28;;;;;;;6.63;5.78;;;2.90;99.90;;;;;;5076701;28;20113;-45
2021/11/30 06:56:54;;;;;;;8.38;5.88;;;2.90;99.90;;;;;;5086013;28;20036;-45
2021/11/30 06:59:20;;;;;;;5.70;4.47;;;2.90;99.90;;;;;;5082845;28;20013;-44
2021/11/30 07:01:47;;;;;;;6.78;5.25;;;3.00;99.90;;;;;;5072775;28;20096;-44
2021/11/30 07:04:13;;;;;;;6.95;5.22;;;3.00;99.90;;;;;;5100510;28;20016;-45
2021/11/30 07:14:03;;;;;;;9.48;6.00;;;3.20;99.90;;;;;;5074141;28;20016;-46
2021/11/30 07:16:29;;;;;;;7.38;5.85;;;3.30;99.90;;;;;;5100381;28;20027;-48
2021/11/30 07:18:55;;;;;;;7.93;5.80;;;3.30;99.90;;;;;;5094994;28;20045;-47
2021/11/30 07:21:21;;;;;;;6.05;5.45;;;3.30;99.90;;;;;;5071558;28;20020;-48
2021/11/30 07:23:47;;;;;;;8.15;6.22;;;3.40;99.90;;;;;;5098555;28;20270;-47
2021/11/30 07:26:13;;;;;;;7.05;5.82;;;3.40;99.90;;;;;;5093635;28;20097;-47
2021/11/30 07:28:38;;;;;;;6.20;5.15;;;3.40;99.90;;;;;;5072376;28;20024;-46
2021/11/30 07:31:11;;;;;;;6.75;5.57;;;3.40;99.90;;;;;;5087460;28;20027;-46
2021/11/30 07:33:43;;;;;;;9.63;7.00;;;3.50;99.90;;;;;;5092463;28;20588;-46
2021/11/30 07:36:11;;;;;;;8.60;6.78;;;3.50;99.90;;;;;;5101349;28;20039;-48
2021/11/30 07:38:38;;;;;;;8.38;7.13;;;3.50;99.90;;;;;;5086043;28;20116;-47
2021/11/30 07:41:05;;;;;;;8.27;7.25;;;3.60;99.90;;;;;;5068963;28;20457;-46
2021/11/30 07:43:32;;;;;;;8.23;6.93;;;3.60;99.90;;;;;;5087373;28;20408;-46
2021/11/30 07:45:58;;;;;;;11.20;7.85;;;3.70;99.90;;;;;;5086576;28;20020;-46
2021/11/30 07:48:23;;;;;;;9.27;6.60;;;3.70;99.90;;;;;;5086415;28;20016;-46
2021/11/30 07:50:50;;;;;;;10.30;7.72;;;3.70;99.90;;;;;;5076546;28;20109;-45
2021/11/30 07:53:16;;;;;;;9.48;6.80;;;3.70;99.90;;;;;;5067857;28;20042;-46
2021/11/30 07:55:42;;;;;;;6.45;5.70;;;3.80;99.90;;;;;;5073991;28;20024;-46
2021/11/30 07:58:08;;;;;;;8.70;6.45;;;3.70;99.90;;;;;;5092853;28;20111;-46
2021/11/30 08:00:34;;;;;;;8.52;6.82;;;3.80;99.90;;;;;;5097663;28;20027;-47
2021/11/30 08:03:00;;;;;;;6.95;5.60;;;3.90;99.90;;;;;;5089873;28;20023;-46
2021/11/30 08:05:26;;;;;;;8.93;6.20;;;3.90;99.90;;;;;;5094271;28;20028;-46
2021/11/30 08:07:52;;;;;;;7.18;6.20;;;3.90;99.90;;;;;;5077937;28;20055;-46
2021/11/30 08:10:20;;;;;;;6.97;5.80;;;3.90;99.90;;;;;;5074354;28;20031;-48
2021/11/30 08:12:45;;;;;;;7.13;5.72;;;4.00;99.90;;;;;;5093078;28;20032;-46
2021/11/30 08:15:13;;;;;;;5.80;5.07;;;4.00;99.90;;;;;;5088391;28;20425;-48
2021/11/30 08:17:39;;;;;;;5.90;5.30;;;4.10;99.90;;;;;;5078287;28;20055;-47
2021/11/30 08:20:06;;;;;;;7.25;5.35;;;4.10;99.90;;;;;;5071115;28;20023;-48
2021/11/30 08:22:32;;;;;;;4.90;4.43;;;4.10;99.90;;;;;;5073881;28;20328;-46
2021/11/30 08:24:57;;;;;;;5.70;4.78;;;4.20;99.90;;;;;;5067056;28;20032;-46
2021/11/30 08:27:23;;;;;;;6.10;5.13;;;4.20;99.90;;;;;;5085842;28;20509;-49
2021/11/30 08:29:50;;;;;;;4.85;4.22;;;4.30;99.90;;;;;;5072649;28;20036;-48
2021/11/30 08:32:20;;;;;;;5.03;4.53;;;4.30;99.90;;;;;;5083189;28;20492;-46
2021/11/30 08:34:46;;;;;;;3.40;2.87;;;4.30;99.90;;;;;;5085191;28;20024;-46
2021/11/30 08:37:12;;;;;;;5.22;4.43;;;4.40;99.90;;;;;;5093803;28;20039;-47
2021/11/30 08:39:38;;;;;;;6.53;4.60;;;4.40;99.90;;;;;;5087297;28;20020;-47
2021/11/30 08:42:07;;;;;;;5.65;4.75;;;4.40;99.90;;;;;;5085630;28;20169;-47
2021/11/30 08:44:33;;;;;;;5.03;4.53;;;4.50;99.90;;;;;;5067285;28;20025;-47
2021/11/30 08:46:59;;;;;;;6.05;5.30;;;4.50;99.90;;;;;;5087116;28;20575;-47
2021/11/30 08:49:27;;;;;;;10.45;5.82;;;4.50;99.90;;;;;;5099664;28;20032;-47
2021/11/30 08:51:56;;;;;;;7.20;5.45;;;4.50;99.90;;;;;;5099842;28;20060;-46
2021/11/30 08:54:22;;;;;;;7.05;6.03;;;4.50;99.90;;;;;;5088464;28;20022;-47
2021/11/30 08:56:49;;;;;;;6.60;5.13;;;4.50;99.90;;;;;;5088048;28;20077;-47
2021/11/30 08:59:15;;;;;;;6.30;5.47;;;4.50;99.90;;;;;;5090591;28;20477;-46
2021/11/30 09:01:41;;;;;;;8.20;5.22;;;4.50;99.90;;;;;;5087352;28;20046;-48
2021/11/30 09:04:07;;;;;;;8.00;5.53;;;4.50;99.90;;;;;;5099104;28;20500;-47
2021/11/30 09:06:33;;;;;;;7.10;5.88;;;4.50;99.90;;;;;;5100055;28;20471;-48
2021/11/30 09:08:59;;;;;;;7.70;5.00;;;4.60;99.90;;;;;;5085124;28;20055;-47
2021/11/30 09:11:25;;;;;;;6.32;5.47;;;4.60;99.90;;;;;;5087625;28;20055;-48
2021/11/30 09:13:52;;;;;;;6.43;5.60;;;4.60;99.90;;;;;;5087765;28;20028;-46
2021/11/30 09:16:18;;;;;;;6.90;5.40;;;4.60;99.90;;;;;;5099378;28;20023;-46
2021/11/30 09:18:44;;;;;;;6.60;5.60;;;4.70;99.90;;;;;;5099072;28;20024;-50
2021/11/30 09:21:09;;;;;;;6.10;5.50;;;4.70;99.90;;;;;;5085095;28;20516;-45
2021/11/30 09:23:35;;;;;;;8.85;5.82;;;4.70;99.90;;;;;;5072626;28;20111;-45
2021/11/30 09:26:02;;;;;;;9.95;5.95;;;4.80;99.90;;;;;;5087953;28;20052;-44
2021/11/30 09:28:27;;;;;;;9.63;5.95;;;4.80;99.90;;;;;;5072448;28;20024;-45
2021/11/30 09:30:54;;;;;;;7.75;6.07;;;4.90;99.90;;;;;;5086539;28;20043;-45
2021/11/30 09:33:20;;;;;;;7.22;5.40;;;4.90;99.90;;;;;;5092707;28;20032;-46
2021/11/30 09:35:46;;;;;;;7.40;5.82;;;5.00;99.90;;;;;;5089961;28;20093;-45
2021/11/30 09:38:11;;;;;;;7.22;5.63;;;5.00;99.90;;;;;;5095867;28;20024;-45
2021/11/30 09:40:38;;;;;;;7.75;6.13;;;5.10;99.90;;;;;;5088271;28;20028;-45
2021/11/30 09:43:04;;;;;;;7.80;5.70;;;5.10;99.90;;;;;;5099489;28;20119;-44
2021/11/30 09:45:34;;;;;;;8.25;6.30;;;5.20;99.90;;;;;;5093851;28;20028;-48
2021/11/30 09:48:00;;;;;;;9.98;6.25;;;5.20;99.90;;;;;;5091735;28;20024;-46
2021/11/30 09:50:26;;;;;;;10.07;6.63;;;5.20;99.90;;;;;;5081056;28;20040;-45
2021/11/30 09:52:55;;;;;;;10.77;7.40;;;5.20;99.90;;;;;;5076010;28;20107;-46
2021/11/30 09:55:23;;;;;;;9.85;6.50;;;5.20;99.90;;;;;;5076582;28;20016;-45
2021/11/30 09:57:52;;;;;;;10.07;6.93;;;5.30;99.90;;;;;;5091233;28;20035;-45
2021/11/30 10:00:19;;;;;;;7.90;4.83;;;5.30;99.90;;;;;;5089747;28;20024;-45
2021/11/30 10:02:46;;;;;;;10.43;6.75;;;5.40;99.90;;;;;;5090788;28;20262;-47
2021/11/30 10:05:11;;;;;;;10.23;6.72;;;5.40;99.90;;;;;;5095630;28;20049;-44
2021/11/30 10:07:42;;;;;;;7.78;6.00;;;5.50;99.90;;;;;;5093075;28;20024;-45
2021/11/30 10:10:12;;;;;;;11.02;5.60;;;5.60;99.90;;;;;;5095416;28;20367;-45
2021/11/30 10:12:38;;;;;;;13.88;7.88;;;5.70;99.90;;;;;;5088616;28;20020;-44
2021/11/30 10:15:11;;;;;;;13.07;5.60;;;5.90;99.90;;;;;;5090800;28;20032;-46
2021/11/30 10:17:37;;;;;;;12.35;5.88;;;6.00;99.90;;;;;;5090777;28;20024;-44
2021/11/30 10:20:09;;;;;;;11.63;6.07;;;6.00;99.90;;;;;;5095038;28;20461;-47
2021/11/30 10:22:43;;;;;;;16.40;5.88;;;6.10;99.90;;;;;;5088033;28;20052;-43
2021/11/30 10:25:14;;;;;;;10.98;5.43;;;6.20;99.90;;;;;;5090123;28;20020;-44
2021/11/30 10:27:55;;;;;;;7.70;5.22;;;6.20;99.90;;;;;;5089999;28;20069;-45
2021/11/30 10:30:24;;;;;;;9.23;5.07;;;6.40;99.90;;;;;;5082839;28;20032;-45
2021/11/30 10:32:52;;;;;;;11.20;5.65;;;6.40;99.90;;;;;;5095196;28;20031;-46
2021/11/30 10:35:21;;;;;;;19.80;5.82;;;6.40;99.90;;;;;;5097662;28;20557;-45
2021/11/30 10:37:47;;;;;;;11.40;6.10;;;6.40;99.90;;;;;;5088481;28;20110;-46
2021/11/30 10:40:26;;;;;;;11.75;5.82;;;6.40;99.90;;;;;;5070016;28;20020;-46
2021/11/30 10:42:54;;;;;;;19.80;5.85;;;6.50;99.90;;;;;;5070356;28;20028;-45
2021/11/30 10:45:44;;;;;;;17.15;6.15;;;6.50;99.90;;;;;;5087258;28;20035;-44
2021/11/30 10:48:18;;;;;;;11.32;5.43;;;6.50;99.90;;;;;;5099029;28;20552;-44
2021/11/30 10:50:50;;;;;;;11.07;5.63;;;6.60;99.90;;;;;;5089816;28;20043;-45
2021/11/30 10:53:26;;;;;;;19.00;6.57;;;6.60;99.90;;;;;;5089353;28;20028;-44
2021/11/30 10:56:03;;;;;;;16.67;5.30;;;6.60;99.90;;;;;;5087275;28;20103;-45
2021/11/30 10:58:34;;;;;;;16.25;6.35;;;6.70;99.90;;;;;;5085696;28;20051;-44
2021/11/30 11:01:06;;;;;;;11.95;5.57;;;6.70;99.90;;;;;;5089220;28;20492;-45
2021/11/30 11:03:32;;;;;;;16.38;5.50;;;6.80;99.90;;;;;;5089828;28;20065;-48
2021/11/30 11:08:57;;;;;;;12.13;5.30;;;6.80;99.90;;;;;;5089217;28;20057;-43
2021/11/30 11:11:29;;;;;;;15.00;5.00;;;7.00;99.90;;;;;;5088801;28;20579;-44
2021/11/30 11:13:55;;;;;;;12.32;4.18;;;7.10;99.90;;;;;;5096769;28;20524;-44
2021/11/30 11:16:34;;;;;;;14.13;3.85;;;7.20;99.90;;;;;;5078806;28;20021;-44
2021/11/30 11:19:03;;;;;;;11.50;3.58;;;7.20;99.90;;;;;;5079607;28;20039;-43
2021/11/30 11:21:40;;;;;;;14.88;3.75;;;7.20;99.90;;;;;;5089300;28;20016;-43
2021/11/30 11:24:13;;;;;;;20.92;4.28;;;7.30;99.90;;;;;;5089934;28;20020;-44
2021/11/30 11:26:47;;;;;;;15.82;3.92;;;7.30;99.90;;;;;;5078389;28;20028;-44
2021/11/30 11:29:21;;;;;;;21.27;4.22;;;7.40;99.90;;;;;;5083104;28;20027;-44
2021/11/30 11:31:58;;;;;;;15.57;3.60;;;7.50;99.90;;;;;;5087366;28;20089;-45
2021/11/30 11:34:27;;;;;;;11.35;3.83;;;7.80;99.90;;;;;;5090909;28;20438;-46
2021/11/30 11:36:55;;;;;;;18.67;3.47;;;8.00;99.90;;;;;;5107144;28;20073;-44
2021/11/30 11:39:22;;;;;;;21.25;5.05;;;8.10;99.90;;;;;;5097017;28;20020;-46
2021/11/30 11:41:51;;;;;;;18.15;3.28;;;8.20;99.90;;;;;;5087278;28;20115;-45
2021/11/30 11:44:17;;;;;;;13.32;3.58;;;8.20;99.90;;;;;;5086703;28;20020;-45
2021/11/30 11:46:45;;;;;;;13.27;4.18;;;8.10;99.90;;;;;;5088437;28;20045;-44
2021/11/30 11:49:12;;;;;;;11.18;2.80;;;8.20;99.90;;;;;;5088482;28;20036;-45
2021/11/30 11:51:44;;;;;;;16.05;3.38;;;8.20;99.90;;;;;;5088362;28;20016;-45
2021/11/30 11:54:31;;;;;;;13.50;3.53;;;8.10;99.90;;;;;;5088519;28;20186;-45
2021/11/30 11:57:11;;;;;;;11.43;3.13;;;7.90;99.90;;;;;;5086393;28;20027;-46
2021/11/30 11:59:44;;;;;;;14.45;2.80;;;7.80;99.90;;;;;;5085681;28;20571;-45
2021/11/30 12:02:24;;;;;;;7.03;2.35;;;7.60;99.90;;;;;;5087390;28;20031;-45
2021/11/30 12:04:55;;;;;;;8.93;2.03;;;7.30;99.90;;;;;;5088154;28;20023;-46
2021/11/30 12:07:27;;;;;;;12.65;2.63;;;7.10;99.90;;;;;;5088555;28;20085;-46
2021/11/30 12:10:20;;;;;;;17.30;2.53;;;7.10;99.90;;;;;;5072763;28;20035;-47
2021/11/30 12:13:01;;;;;;;11.10;2.40;;;7.00;99.90;;;;;;5068173;28;20558;-45
2021/11/30 12:15:54;;;;;;;15.88;2.90;;;6.90;99.90;;;;;;5080186;28;20061;-45
2021/11/30 12:18:30;;;;;;;14.82;3.20;;;6.90;99.90;;;;;;5087239;28;20028;-47
2021/11/30 12:21:10;;;;;;;13.93;2.45;;;6.80;99.90;;;;;;5084236;28;20581;-45
2021/11/30 12:23:37;;;;;;;9.50;2.05;;;6.80;99.90;;;;;;5067278;28;20501;-46
2021/11/30 12:26:04;;;;;;;8.00;2.47;;;6.90;99.90;;;;;;5079896;28;20059;-45
2021/11/30 12:28:36;;;;;;;14.70;2.97;;;7.00;99.90;;;;;;5083878;28;20028;-45
2021/11/30 12:31:02;;;;;;;10.20;2.85;;;7.00;99.90;;;;;;5067853;28;20033;-45
2021/11/30 12:33:34;;;;;;;16.95;2.83;;;7.10;99.90;;;;;;5087737;28;20450;-45
2021/11/30 12:36:09;;;;;;;15.77;3.15;;;7.20;99.90;;;;;;5093549;28;20032;-45
2021/11/30 12:38:50;;;;;;;14.68;3.17;;;7.30;99.90;;;;;;5088754;28;20024;-47
2021/11/30 12:41:38;;;;;;;16.02;3.08;;;7.30;99.90;;;;;;5082500;28;20157;-44
2021/11/30 12:44:09;;;;;;;19.20;3.92;;;7.40;99.90;;;;;;5094371;28;20451;-45
2021/11/30 12:46:40;;;;;;;17.10;2.88;;;7.40;99.90;;;;;;5094865;28;20032;-45
2021/11/30 12:52:23;;;;;;;14.52;2.65;;;7.20;99.90;;;;;;5088287;28;19973;-44
2021/11/30 12:55:13;;;;;;;15.65;3.17;;;7.20;99.90;;;;;;5087062;28;20533;-45
2021/11/30 12:57:41;;;;;;;27.77;4.68;;;7.10;99.90;;;;;;5067954;28;20471;-45
2021/11/30 13:00:09;;;;;;;15.45;3.25;;;7.10;99.90;;;;;;5084021;28;20543;-48
2021/11/30 13:02:46;;;;;;;18.17;3.22;;;7.10;99.90;;;;;;5088252;28;20026;-45
2021/11/30 13:05:13;;;;;;;9.82;3.42;;;7.10;99.90;;;;;;5097889;28;20117;-44
2021/11/30 13:07:48;;;;;;;18.33;4.60;;;7.20;99.90;;;;;;5087414;28;20027;-45